sensor_id;sensor_type;location;lat;lon;timestamp;pressure;altitude;pressure_sealevel;temperature;humidity
46007;BME280;31738;50.188;8.524;2023-05-10T00:00:57;97925.34;;;16.00;93.77
46007;BME280;31738;50.188;8.524;2023-05-10T00:03:22;97940.31;;;15.97;93.79
46007;BME280;31738;50.188;8.524;2023-05-10T00:05:48;97942.88;;;15.94;93.62
46007;BME280;31738;50.188;8.524;2023-05-10T00:08:13;97946.56;;;15.89;94.05
46007;BME280;31738;50.188;8.524;2023-05-10T00:10:38;97945.75;;;15.89;93.93
46007;BME280;31738;50.188;8.524;2023-05-10T00:13:04;97941.00;;;15.86;93.72
46007;BME280;31738;50.188;8.524;2023-05-10T00:15:29;97945.94;;;15.84;93.43
46007;BME280;31738;50.188;8.524;2023-05-10T00:17:59;97947.72;;;15.80;93.52
46007;BME280;31738;50.188;8.524;2023-05-10T00:20:25;97944.53;;;15.78;93.49
46007;BME280;31738;50.188;8.524;2023-05-10T00:22:50;97947.91;;;15.75;93.22
46007;BME280;31738;50.188;8.524;2023-05-10T00:25:16;97948.56;;;15.72;93.50
46007;BME280;31738;50.188;8.524;2023-05-10T00:27:42;97946.97;;;15.71;93.48
46007;BME280;31738;50.188;8.524;2023-05-10T00:30:09;97951.59;;;15.70;93.59
46007;BME280;31738;50.188;8.524;2023-05-10T00:32:34;97952.22;;;15.67;93.38
46007;BME280;31738;50.188;8.524;2023-05-10T00:35:00;97953.69;;;15.65;93.44
46007;BME280;31738;50.188;8.524;2023-05-10T00:37:26;97961.00;;;15.64;93.31
46007;BME280;31738;50.188;8.524;2023-05-10T00:39:51;97959.75;;;15.62;93.32
46007;BME280;31738;50.188;8.524;2023-05-10T00:42:17;97967.38;;;15.60;92.99
46007;BME280;31738;50.188;8.524;2023-05-10T00:44:42;97966.91;;;15.58;93.01
46007;BME280;31738;50.188;8.524;2023-05-10T00:47:10;97971.84;;;15.56;92.85
46007;BME280;31738;50.188;8.524;2023-05-10T00:49:36;97969.47;;;15.54;93.15
46007;BME280;31738;50.188;8.524;2023-05-10T00:52:03;97972.50;;;15.53;92.82
46007;BME280;31738;50.188;8.524;2023-05-10T00:54:28;97980.13;;;15.51;92.67
46007;BME280;31738;50.188;8.524;2023-05-10T00:56:54;97974.91;;;15.46;92.71
46007;BME280;31738;50.188;8.524;2023-05-10T00:59:22;97984.44;;;15.43;92.65
46007;BME280;31738;50.188;8.524;2023-05-10T01:01:48;97987.31;;;15.38;92.96
46007;BME280;31738;50.188;8.524;2023-05-10T01:04:14;97985.72;;;15.37;93.03
46007;BME280;31738;50.188;8.524;2023-05-10T01:06:41;97986.81;;;15.36;92.75
46007;BME280;31738;50.188;8.524;2023-05-10T01:09:08;97984.75;;;15.33;93.24
46007;BME280;31738;50.188;8.524;2023-05-10T01:11:34;97980.16;;;15.33;92.98
46007;BME280;31738;50.188;8.524;2023-05-10T01:14:01;97989.38;;;15.32;93.01
46007;BME280;31738;50.188;8.524;2023-05-10T01:16:29;97982.38;;;15.31;93.12
46007;BME280;31738;50.188;8.524;2023-05-10T01:18:57;97993.81;;;15.28;93.33
46007;BME280;31738;50.188;8.524;2023-05-10T01:21:39;97981.91;;;15.29;93.05
46007;BME280;31738;50.188;8.524;2023-05-10T01:35:32;97995.91;;;15.23;93.48
46007;BME280;31738;50.188;8.524;2023-05-10T01:38:25;97988.13;;;15.21;93.63
46007;BME280;31738;50.188;8.524;2023-05-10T01:41:04;97998.13;;;15.21;93.65
46007;BME280;31738;50.188;8.524;2023-05-10T01:43:42;98002.13;;;15.23;93.59
46007;BME280;31738;50.188;8.524;2023-05-10T01:46:16;98004.03;;;15.23;93.58
46007;BME280;31738;50.188;8.524;2023-05-10T01:48:51;98009.09;;;15.24;93.67
46007;BME280;31738;50.188;8.524;2023-05-10T01:51:36;98012.94;;;15.23;93.62
46007;BME280;31738;50.188;8.524;2023-05-10T01:54:04;98011.97;;;15.19;93.87
46007;BME280;31738;50.188;8.524;2023-05-10T01:56:33;98018.19;;;15.20;93.91
46007;BME280;31738;50.188;8.524;2023-05-10T01:59:00;98003.88;;;15.19;93.93
46007;BME280;31738;50.188;8.524;2023-05-10T02:01:30;98013.56;;;15.20;93.91
46007;BME280;31738;50.188;8.524;2023-05-10T02:03:56;98015.94;;;15.22;93.66
46007;BME280;31738;50.188;8.524;2023-05-10T02:06:23;98012.44;;;15.21;93.81
46007;BME280;31738;50.188;8.524;2023-05-10T02:08:51;98015.16;;;15.21;93.74
46007;BME280;31738;50.188;8.524;2023-05-10T02:11:18;98017.38;;;15.19;93.67
46007;BME280;31738;50.188;8.524;2023-05-10T02:13:50;98015.78;;;15.18;93.85
46007;BME280;31738;50.188;8.524;2023-05-10T02:16:18;98018.50;;;15.18;94.00
46007;BME280;31738;50.188;8.524;2023-05-10T02:18:47;98018.19;;;15.20;93.96
46007;BME280;31738;50.188;8.524;2023-05-10T02:21:15;98018.97;;;15.20;93.69
46007;BME280;31738;50.188;8.524;2023-05-10T02:23:43;98027.41;;;15.19;93.89
46007;BME280;31738;50.188;8.524;2023-05-10T02:26:09;98028.81;;;15.16;93.75
46007;BME280;31738;50.188;8.524;2023-05-10T02:28:36;98035.03;;;15.17;93.87
46007;BME280;31738;50.188;8.524;2023-05-10T02:31:03;98041.22;;;15.17;93.83
46007;BME280;31738;50.188;8.524;2023-05-10T02:33:29;98040.44;;;15.17;94.07
46007;BME280;31738;50.188;8.524;2023-05-10T02:35:55;98046.16;;;15.15;93.90
46007;BME280;31738;50.188;8.524;2023-05-10T02:38:22;98048.38;;;15.13;94.06
46007;BME280;31738;50.188;8.524;2023-05-10T02:40:50;98053.44;;;15.15;94.04
46007;BME280;31738;50.188;8.524;2023-05-10T02:43:16;98048.84;;;15.15;94.07
46007;BME280;31738;50.188;8.524;2023-05-10T02:45:46;98047.28;;;15.14;93.93
46007;BME280;31738;50.188;8.524;2023-05-10T02:48:12;98055.66;;;15.13;93.51
46007;BME280;31738;50.188;8.524;2023-05-10T02:50:42;98049.50;;;15.12;93.71
46007;BME280;31738;50.188;8.524;2023-05-10T02:53:15;98051.72;;;15.10;93.64
46007;BME280;31738;50.188;8.524;2023-05-10T02:55:47;98056.63;;;15.08;93.79
46007;BME280;31738;50.188;8.524;2023-05-10T02:58:14;98049.47;;;15.04;93.78
46007;BME280;31738;50.188;8.524;2023-05-10T03:00:39;98046.78;;;15.04;93.58
46007;BME280;31738;50.188;8.524;2023-05-10T03:03:06;98062.22;;;15.03;93.84
46007;BME280;31738;50.188;8.524;2023-05-10T03:05:32;98053.63;;;15.01;93.56
46007;BME280;31738;50.188;8.524;2023-05-10T03:08:01;98052.03;;;15.00;93.67
46007;BME280;31738;50.188;8.524;2023-05-10T03:10:30;98054.56;;;14.97;93.54
46007;BME280;31738;50.188;8.524;2023-05-10T03:18:22;98062.06;;;14.91;93.62
46007;BME280;31738;50.188;8.524;2023-05-10T03:20:50;98056.16;;;14.89;93.79
46007;BME280;31738;50.188;8.524;2023-05-10T03:24:02;98060.00;;;14.88;93.80
46007;BME280;31738;50.188;8.524;2023-05-10T03:26:08;98063.28;;;14.85;93.78
46007;BME280;31738;50.188;8.524;2023-05-10T03:28:35;98073.00;;;14.86;93.74
46007;BME280;31738;50.188;8.524;2023-05-10T03:31:04;98076.78;;;14.85;93.95
46007;BME280;31738;50.188;8.524;2023-05-10T03:33:31;98074.91;;;14.86;93.89
46007;BME280;31738;50.188;8.524;2023-05-10T03:35:58;98067.59;;;14.86;93.78
46007;BME280;31738;50.188;8.524;2023-05-10T03:38:25;98069.19;;;14.87;94.28
46007;BME280;31738;50.188;8.524;2023-05-10T03:40:50;98075.69;;;14.86;93.83
46007;BME280;31738;50.188;8.524;2023-05-10T03:43:16;98071.88;;;14.87;94.14
46007;BME280;31738;50.188;8.524;2023-05-10T03:45:41;98081.59;;;14.88;93.92
46007;BME280;31738;50.188;8.524;2023-05-10T03:48:07;98079.97;;;14.87;94.16
46007;BME280;31738;50.188;8.524;2023-05-10T03:50:32;98080.78;;;14.88;93.95
46007;BME280;31738;50.188;8.524;2023-05-10T03:52:58;98079.50;;;14.85;93.90
46007;BME280;31738;50.188;8.524;2023-05-10T03:55:23;98081.44;;;14.85;93.91
46007;BME280;31738;50.188;8.524;2023-05-10T03:57:50;98083.81;;;14.86;93.79
46007;BME280;31738;50.188;8.524;2023-05-10T04:00:15;98091.91;;;14.86;94.00
46007;BME280;31738;50.188;8.524;2023-05-10T04:02:41;98095.41;;;14.87;93.75
46007;BME280;31738;50.188;8.524;2023-05-10T04:05:10;98091.91;;;14.86;93.59
46007;BME280;31738;50.188;8.524;2023-05-10T04:07:36;98097.31;;;14.86;93.57
46007;BME280;31738;50.188;8.524;2023-05-10T04:10:01;98095.41;;;14.87;93.59
46007;BME280;31738;50.188;8.524;2023-05-10T04:12:27;98090.28;;;14.85;93.75
46007;BME280;31738;50.188;8.524;2023-05-10T04:14:53;98083.81;;;14.86;93.75
46007;BME280;31738;50.188;8.524;2023-05-10T04:17:18;98074.91;;;14.86;93.60
46007;BME280;31738;50.188;8.524;2023-05-10T04:19:43;98084.13;;;14.85;93.72
46007;BME280;31738;50.188;8.524;2023-05-10T04:22:09;98079.03;;;14.83;93.75
46007;BME280;31738;50.188;8.524;2023-05-10T04:24:35;98083.31;;;14.84;94.35
46007;BME280;31738;50.188;8.524;2023-05-10T04:27:00;98087.59;;;14.85;93.86
46007;BME280;31738;50.188;8.524;2023-05-10T04:29:26;98083.00;;;14.86;93.84
46007;BME280;31738;50.188;8.524;2023-05-10T04:31:52;98098.41;;;14.85;93.75
46007;BME280;31738;50.188;8.524;2023-05-10T04:34:20;98085.38;;;14.87;94.18
46007;BME280;31738;50.188;8.524;2023-05-10T04:36:45;98088.56;;;14.89;94.00
46007;BME280;31738;50.188;8.524;2023-05-10T04:39:11;98093.97;;;14.89;93.99
46007;BME280;31738;50.188;8.524;2023-05-10T04:41:37;98093.97;;;14.89;93.79
46007;BME280;31738;50.188;8.524;2023-05-10T04:44:03;98099.84;;;14.91;94.22
46007;BME280;31738;50.188;8.524;2023-05-10T04:46:29;98102.56;;;14.91;94.14
46007;BME280;31738;50.188;8.524;2023-05-10T04:48:54;98110.34;;;14.93;94.30
46007;BME280;31738;50.188;8.524;2023-05-10T04:51:19;98107.16;;;14.91;94.03
46007;BME280;31738;50.188;8.524;2023-05-10T04:53:45;98105.59;;;14.90;94.17
46007;BME280;31738;50.188;8.524;2023-05-10T04:56:11;98111.75;;;14.90;94.33
46007;BME280;31738;50.188;8.524;2023-05-10T04:58:36;98107.16;;;14.91;94.61
46007;BME280;31738;50.188;8.524;2023-05-10T05:01:06;98118.28;;;14.89;94.54
46007;BME280;31738;50.188;8.524;2023-05-10T05:03:32;98109.06;;;14.90;94.44
46007;BME280;31738;50.188;8.524;2023-05-10T05:05:57;98117.16;;;14.90;94.46
46007;BME280;31738;50.188;8.524;2023-05-10T05:08:23;98106.84;;;14.92;94.61
46007;BME280;31738;50.188;8.524;2023-05-10T05:10:51;98111.13;;;14.93;94.74
46007;BME280;31738;50.188;8.524;2023-05-10T05:13:17;98104.13;;;14.92;94.84
46007;BME280;31738;50.188;8.524;2023-05-10T05:15:42;98111.13;;;14.93;94.62
46007;BME280;31738;50.188;8.524;2023-05-10T05:18:08;98104.13;;;14.92;94.61
46007;BME280;31738;50.188;8.524;2023-05-10T05:20:33;98111.94;;;14.94;94.94
46007;BME280;31738;50.188;8.524;2023-05-10T05:23:02;98118.13;;;14.94;94.91
46007;BME280;31738;50.188;8.524;2023-05-10T05:25:27;98116.53;;;14.93;95.02
46007;BME280;31738;50.188;8.524;2023-05-10T05:27:53;98128.13;;;14.94;94.97
46007;BME280;31738;50.188;8.524;2023-05-10T05:30:18;98122.41;;;14.95;95.24
46007;BME280;31738;50.188;8.524;2023-05-10T05:32:44;98117.50;;;14.97;95.25
46007;BME280;31738;50.188;8.524;2023-05-10T05:35:09;98122.91;;;14.97;94.92
46007;BME280;31738;50.188;8.524;2023-05-10T05:37:35;98128.31;;;14.97;95.27
46007;BME280;31738;50.188;8.524;2023-05-10T05:40:00;98128.63;;;14.96;94.95
46007;BME280;31738;50.188;8.524;2023-05-10T05:42:27;98123.22;;;14.96;95.01
46007;BME280;31738;50.188;8.524;2023-05-10T05:44:52;98128.94;;;14.94;95.23
46007;BME280;31738;50.188;8.524;2023-05-10T05:47:18;98124.31;;;14.95;95.26
46007;BME280;31738;50.188;8.524;2023-05-10T05:49:43;98129.06;;;14.98;95.25
46007;BME280;31738;50.188;8.524;2023-05-10T05:52:11;98129.25;;;15.01;95.30
46007;BME280;31738;50.188;8.524;2023-05-10T05:54:36;98127.03;;;15.03;95.22
46007;BME280;31738;50.188;8.524;2023-05-10T05:57:02;98128.28;;;15.06;95.08
46007;BME280;31738;50.188;8.524;2023-05-10T05:59:27;98130.19;;;15.05;95.27
46007;BME280;31738;50.188;8.524;2023-05-10T06:01:53;98137.19;;;15.06;95.09
46007;BME280;31738;50.188;8.524;2023-05-10T06:04:18;98144.19;;;15.07;95.13
46007;BME280;31738;50.188;8.524;2023-05-10T06:06:44;98144.19;;;15.07;95.22
46007;BME280;31738;50.188;8.524;2023-05-10T06:09:10;98144.19;;;15.07;95.05
46007;BME280;31738;50.188;8.524;2023-05-10T06:12:01;98140.38;;;15.08;95.05
46007;BME280;31738;50.188;8.524;2023-05-10T06:14:30;98151.81;;;15.05;95.47
46007;BME280;31738;50.188;8.524;2023-05-10T06:16:55;98149.75;;;15.11;95.50
46007;BME280;31738;50.188;8.524;2023-05-10T06:19:21;98151.50;;;15.15;95.41
46007;BME280;31738;50.188;8.524;2023-05-10T06:21:46;98152.13;;;15.21;95.34
46007;BME280;31738;50.188;8.524;2023-05-10T06:24:19;98158.19;;;15.26;95.48
46007;BME280;31738;50.188;8.524;2023-05-10T06:26:45;98155.31;;;15.31;95.46
46007;BME280;31738;50.188;8.524;2023-05-10T06:29:10;98157.59;;;15.38;95.29
46007;BME280;31738;50.188;8.524;2023-05-10T06:31:38;98146.94;;;15.42;95.45
46007;BME280;31738;50.188;8.524;2023-05-10T06:34:06;98166.16;;;15.49;95.13
46007;BME280;31738;50.188;8.524;2023-05-10T06:36:33;98160.91;;;15.52;95.08
46007;BME280;31738;50.188;8.524;2023-05-10T06:39:01;98165.38;;;15.57;95.33
46007;BME280;31738;50.188;8.524;2023-05-10T06:41:27;98171.38;;;15.62;95.32
46007;BME280;31738;50.188;8.524;2023-05-10T06:43:52;98175.38;;;15.65;95.21
46007;BME280;31738;50.188;8.524;2023-05-10T06:46:17;98165.22;;;15.62;95.38
46007;BME280;31738;50.188;8.524;2023-05-10T06:48:43;98170.28;;;15.55;95.13
46007;BME280;31738;50.188;8.524;2023-05-10T06:51:08;98175.69;;;15.55;95.21
46007;BME280;31738;50.188;8.524;2023-05-10T06:53:34;98170.59;;;15.53;95.33
46007;BME280;31738;50.188;8.524;2023-05-10T06:55:59;98175.06;;;15.58;95.39
46007;BME280;31738;50.188;8.524;2023-05-10T06:58:25;98170.13;;;15.60;95.31
46007;BME280;31738;50.188;8.524;2023-05-10T07:00:50;98179.19;;;15.64;95.31
46007;BME280;31738;50.188;8.524;2023-05-10T07:03:16;98186.66;;;15.67;95.32
46007;BME280;31738;50.188;8.524;2023-05-10T07:05:41;98190.34;;;15.71;95.11
46007;BME280;31738;50.188;8.524;2023-05-10T07:08:07;98194.47;;;15.77;95.17
46007;BME280;31738;50.188;8.524;2023-05-10T07:10:33;98192.84;;;15.84;95.31
46007;BME280;31738;50.188;8.524;2023-05-10T07:12:59;98196.66;;;15.92;94.76
46007;BME280;31738;50.188;8.524;2023-05-10T07:15:25;98198.72;;;15.95;94.46
46007;BME280;31738;50.188;8.524;2023-05-10T07:17:50;98204.28;;;15.98;94.42
46007;BME280;31738;50.188;8.524;2023-05-10T07:20:17;98211.78;;;16.01;94.47
46007;BME280;31738;50.188;8.524;2023-05-10T07:22:42;98209.22;;;16.05;94.64
46007;BME280;31738;50.188;8.524;2023-05-10T07:25:08;98215.09;;;16.07;94.59
46007;BME280;31738;50.188;8.524;2023-05-10T07:27:33;98223.69;;;16.09;94.09
46007;BME280;31738;50.188;8.524;2023-05-10T07:29:59;98221.91;;;16.13;94.31
46007;BME280;31738;50.188;8.524;2023-05-10T07:32:24;98221.91;;;16.13;94.45
46007;BME280;31738;50.188;8.524;2023-05-10T07:34:49;98216.06;;;16.11;94.28
46007;BME280;31738;50.188;8.524;2023-05-10T07:37:15;98211.56;;;16.15;94.33
46007;BME280;31738;50.188;8.524;2023-05-10T07:39:40;98213.47;;;16.23;94.38
46007;BME280;31738;50.188;8.524;2023-05-10T07:42:06;98216.94;;;16.32;94.48
46007;BME280;31738;50.188;8.524;2023-05-10T07:44:32;98215.66;;;16.38;94.00
46007;BME280;31738;50.188;8.524;2023-05-10T07:46:57;98218.03;;;16.39;93.86
46007;BME280;31738;50.188;8.524;2023-05-10T07:49:23;98223.78;;;16.38;94.11
46007;BME280;31738;50.188;8.524;2023-05-10T07:51:51;98221.25;;;16.33;93.98
46007;BME280;31738;50.188;8.524;2023-05-10T07:54:17;98231.94;;;16.29;93.82
46007;BME280;31738;50.188;8.524;2023-05-10T07:56:42;98229.22;;;16.29;93.96
46007;BME280;31738;50.188;8.524;2023-05-10T07:59:16;98235.25;;;16.35;93.93
46007;BME280;31738;50.188;8.524;2023-05-10T08:01:42;98231.25;;;16.41;94.05
46007;BME280;31738;50.188;8.524;2023-05-10T08:04:08;98233.97;;;16.49;93.97
46007;BME280;31738;50.188;8.524;2023-05-10T08:06:34;98235.72;;;16.54;93.74
46007;BME280;31738;50.188;8.524;2023-05-10T08:08:59;98225.97;;;16.61;93.96
46007;BME280;31738;50.188;8.524;2023-05-10T08:11:25;98231.66;;;16.68;94.11
46007;BME280;31738;50.188;8.524;2023-05-10T08:13:53;98228.78;;;16.73;93.18
46007;BME280;31738;50.188;8.524;2023-05-10T08:16:19;98236.59;;;16.75;93.36
46007;BME280;31738;50.188;8.524;2023-05-10T08:18:46;98241.53;;;16.73;93.28
46007;BME280;31738;50.188;8.524;2023-05-10T08:21:12;98243.31;;;16.69;92.59
46007;BME280;31738;50.188;8.524;2023-05-10T08:23:38;98247.09;;;16.68;92.95
46007;BME280;31738;50.188;8.524;2023-05-10T08:26:03;98245.69;;;16.70;93.18
46007;BME280;31738;50.188;8.524;2023-05-10T08:28:29;98242.00;;;16.75;93.00
46007;BME280;31738;50.188;8.524;2023-05-10T08:30:56;98243.22;;;16.86;93.29
46007;BME280;31738;50.188;8.524;2023-05-10T08:33:21;98243.50;;;16.93;92.85
46007;BME280;31738;50.188;8.524;2023-05-10T08:35:47;98243.34;;;16.98;92.25
46007;BME280;31738;50.188;8.524;2023-05-10T08:38:12;98252.84;;;17.04;92.81
46007;BME280;31738;50.188;8.524;2023-05-10T08:40:41;98257.44;;;17.12;92.64
46007;BME280;31738;50.188;8.524;2023-05-10T08:43:10;98248.34;;;17.17;92.54
46007;BME280;31738;50.188;8.524;2023-05-10T08:45:42;98263.78;;;17.16;92.03
46007;BME280;31738;50.188;8.524;2023-05-10T08:48:09;98265.59;;;17.12;92.05
46007;BME280;31738;50.188;8.524;2023-05-10T08:50:39;98268.00;;;17.05;91.70
46007;BME280;31738;50.188;8.524;2023-05-10T08:53:09;98265.13;;;17.01;91.89
46007;BME280;31738;50.188;8.524;2023-05-10T08:55:37;98278.56;;;16.98;91.95
46007;BME280;31738;50.188;8.524;2023-05-10T08:58:04;98277.28;;;16.95;91.58
46007;BME280;31738;50.188;8.524;2023-05-10T09:00:31;98287.78;;;16.97;91.04
46007;BME280;31738;50.188;8.524;2023-05-10T09:02:58;98285.56;;;16.99;90.97
46007;BME280;31738;50.188;8.524;2023-05-10T09:05:23;98297.84;;;16.96;90.32
46007;BME280;31738;50.188;8.524;2023-05-10T09:07:49;98296.25;;;16.95;89.86
46007;BME280;31738;50.188;8.524;2023-05-10T09:10:15;98311.06;;;16.98;89.66
46007;BME280;31738;50.188;8.524;2023-05-10T09:12:41;98309.94;;;16.99;89.20
46007;BME280;31738;50.188;8.524;2023-05-10T09:15:07;98317.41;;;17.02;88.61
46007;BME280;31738;50.188;8.524;2023-05-10T09:17:34;98321.41;;;17.04;88.02
46007;BME280;31738;50.188;8.524;2023-05-10T09:20:01;98326.63;;;17.09;87.73
46007;BME280;31738;50.188;8.524;2023-05-10T09:22:28;98336.50;;;17.14;87.26
46007;BME280;31738;50.188;8.524;2023-05-10T09:25:13;98335.19;;;17.20;87.21
46007;BME280;31738;50.188;8.524;2023-05-10T09:27:40;98331.88;;;17.15;87.16
46007;BME280;31738;50.188;8.524;2023-05-10T09:30:07;98336.50;;;17.14;87.40
46007;BME280;31738;50.188;8.524;2023-05-10T09:35:14;98348.28;;;17.18;86.95
46007;BME280;31738;50.188;8.524;2023-05-10T09:37:42;98346.03;;;17.20;86.82
46007;BME280;31738;50.188;8.524;2023-05-10T09:40:12;98339.31;;;17.26;86.04
46007;BME280;31738;50.188;8.524;2023-05-10T09:42:38;98337.69;;;17.34;85.86
46007;BME280;31738;50.188;8.524;2023-05-10T09:45:04;98343.25;;;17.46;86.01
46007;BME280;31738;50.188;8.524;2023-05-10T09:47:36;98348.13;;;17.52;84.71
46007;BME280;31738;50.188;8.524;2023-05-10T09:50:03;98334.72;;;17.56;85.79
46007;BME280;31738;50.188;8.524;2023-05-10T09:52:31;98338.81;;;17.70;85.22
46007;BME280;31738;50.188;8.524;2023-05-10T09:55:10;98336.69;;;17.96;85.89
46007;BME280;31738;50.188;8.524;2023-05-10T09:57:35;98338.34;;;18.09;84.85
46007;BME280;31738;50.188;8.524;2023-05-10T10:00:01;98353.06;;;18.08;85.03
46007;BME280;31738;50.188;8.524;2023-05-10T10:02:39;98347.16;;;18.06;85.00
46007;BME280;31738;50.188;8.524;2023-05-10T10:05:06;98346.00;;;18.07;84.76
46007;BME280;31738;50.188;8.524;2023-05-10T10:07:32;98350.47;;;18.12;84.12
46007;BME280;31738;50.188;8.524;2023-05-10T10:09:58;98347.53;;;18.17;84.29
46007;BME280;31738;50.188;8.524;2023-05-10T10:12:25;98354.03;;;18.24;83.90
46007;BME280;31738;50.188;8.524;2023-05-10T10:14:50;98366.59;;;18.29;82.91
46007;BME280;31738;50.188;8.524;2023-05-10T10:17:17;98381.78;;;18.30;82.38
46007;BME280;31738;50.188;8.524;2023-05-10T10:19:42;98375.75;;;18.24;82.81
46007;BME280;31738;50.188;8.524;2023-05-10T10:22:08;98378.22;;;18.17;83.62
46007;BME280;31738;50.188;8.524;2023-05-10T10:24:38;98382.59;;;18.10;83.87
46007;BME280;31738;50.188;8.524;2023-05-10T10:27:24;98393.81;;;18.00;83.61
46007;BME280;31738;50.188;8.524;2023-05-10T10:30:12;98385.94;;;17.86;84.10
46007;BME280;31738;50.188;8.524;2023-05-10T10:33:01;98389.03;;;17.76;85.58
46007;BME280;31738;50.188;8.524;2023-05-10T10:35:33;98386.81;;;17.70;86.40
46007;BME280;31738;50.188;8.524;2023-05-10T10:38:00;98381.25;;;17.66;86.49
46007;BME280;31738;50.188;8.524;2023-05-10T10:40:30;98381.91;;;17.63;86.16
46007;BME280;31738;50.188;8.524;2023-05-10T10:42:57;98377.00;;;17.57;86.48
46007;BME280;31738;50.188;8.524;2023-05-10T10:45:24;98380.41;;;17.45;85.85
46007;BME280;31738;50.188;8.524;2023-05-10T10:48:20;98376.91;;;17.36;86.64
46007;BME280;31738;50.188;8.524;2023-05-10T10:50:46;98370.91;;;17.22;86.95
46007;BME280;31738;50.188;8.524;2023-05-10T10:53:12;98369.97;;;17.18;87.30
46007;BME280;31738;50.188;8.524;2023-05-10T10:55:47;98373.94;;;17.21;87.34
46007;BME280;31738;50.188;8.524;2023-05-10T10:58:30;98365.50;;;17.22;88.16
46007;BME280;31738;50.188;8.524;2023-05-10T11:01:14;98375.53;;;17.22;88.08
46007;BME280;31738;50.188;8.524;2023-05-10T11:03:41;98370.25;;;17.25;88.80
46007;BME280;31738;50.188;8.524;2023-05-10T11:06:32;98370.56;;;17.32;88.03
46007;BME280;31738;50.188;8.524;2023-05-10T11:08:57;98370.69;;;17.36;87.87
46007;BME280;31738;50.188;8.524;2023-05-10T11:11:23;98374.81;;;17.42;87.56
46007;BME280;31738;50.188;8.524;2023-05-10T11:13:49;98371.31;;;17.41;87.72
46007;BME280;31738;50.188;8.524;2023-05-10T11:16:22;98359.19;;;17.47;87.87
46007;BME280;31738;50.188;8.524;2023-05-10T11:19:02;98366.53;;;17.47;88.14
46007;BME280;31738;50.188;8.524;2023-05-10T11:21:29;98368.44;;;17.46;88.14
46007;BME280;31738;50.188;8.524;2023-05-10T11:23:57;98364.75;;;17.42;88.33
46007;BME280;31738;50.188;8.524;2023-05-10T11:26:31;98355.50;;;17.43;88.89
46007;BME280;31738;50.188;8.524;2023-05-10T11:28:57;98364.94;;;17.46;89.36
46007;BME280;31738;50.188;8.524;2023-05-10T11:31:23;98356.28;;;17.52;89.27
46007;BME280;31738;50.188;8.524;2023-05-10T11:33:56;98358.78;;;17.66;89.18
46007;BME280;31738;50.188;8.524;2023-05-10T11:36:27;98353.75;;;17.76;89.20
46007;BME280;31738;50.188;8.524;2023-05-10T11:38:53;98358.34;;;17.84;89.22
46007;BME280;31738;50.188;8.524;2023-05-10T11:41:20;98357.28;;;17.97;88.47
46007;BME280;31738;50.188;8.524;2023-05-10T11:43:49;98367.47;;;18.00;87.95
46007;BME280;31738;50.188;8.524;2023-05-10T11:46:17;98371.09;;;18.04;87.53
46007;BME280;31738;50.188;8.524;2023-05-10T11:48:43;98370.13;;;18.09;87.81
46007;BME280;31738;50.188;8.524;2023-05-10T11:51:10;98367.53;;;18.12;87.63
46007;BME280;31738;50.188;8.524;2023-05-10T11:53:36;98368.59;;;18.20;87.78
46007;BME280;31738;50.188;8.524;2023-05-10T11:56:12;98372.38;;;18.27;87.19
46007;BME280;31738;50.188;8.524;2023-05-10T11:58:39;98363.44;;;18.27;87.39
46007;BME280;31738;50.188;8.524;2023-05-10T12:01:06;98370.78;;;18.26;87.75
46007;BME280;31738;50.188;8.524;2023-05-10T12:03:32;98370.59;;;18.31;86.89
46007;BME280;31738;50.188;8.524;2023-05-10T12:05:59;98377.25;;;18.42;87.34
46007;BME280;31738;50.188;8.524;2023-05-10T12:08:27;98378.41;;;18.53;86.89
46007;BME280;31738;50.188;8.524;2023-05-10T12:11:03;98380.00;;;18.54;86.12
46007;BME280;31738;50.188;8.524;2023-05-10T12:13:28;98389.34;;;18.45;85.15
46007;BME280;31738;50.188;8.524;2023-05-10T12:15:57;98390.50;;;18.44;85.95
46007;BME280;31738;50.188;8.524;2023-05-10T12:18:23;98407.47;;;18.41;84.76
46007;BME280;31738;50.188;8.524;2023-05-10T12:20:52;98404.28;;;18.39;85.31
46007;BME280;31738;50.188;8.524;2023-05-10T12:23:21;98399.97;;;18.38;85.79
46007;BME280;31738;50.188;8.524;2023-05-10T12:25:46;98407.16;;;18.34;85.17
46007;BME280;31738;50.188;8.524;2023-05-10T12:28:12;98408.47;;;18.28;84.58
46007;BME280;31738;50.188;8.524;2023-05-10T12:30:38;98412.19;;;18.23;85.50
46007;BME280;31738;50.188;8.524;2023-05-10T12:33:11;98407.59;;;18.15;85.85
46007;BME280;31738;50.188;8.524;2023-05-10T12:35:48;98399.66;;;18.10;86.43
46007;BME280;31738;50.188;8.524;2023-05-10T12:40:50;98414.56;;;18.25;85.36
46007;BME280;31738;50.188;8.524;2023-05-10T12:43:15;98405.06;;;18.39;84.72
46007;BME280;31738;50.188;8.524;2023-05-10T12:45:41;98405.47;;;18.50;84.86
46007;BME280;31738;50.188;8.524;2023-05-10T12:48:06;98409.81;;;18.63;84.34
46007;BME280;31738;50.188;8.524;2023-05-10T12:50:32;98412.00;;;18.69;83.66
46007;BME280;31738;50.188;8.524;2023-05-10T12:52:57;98418.66;;;18.72;83.74
46007;BME280;31738;50.188;8.524;2023-05-10T12:55:23;98420.19;;;18.82;83.37
46007;BME280;31738;50.188;8.524;2023-05-10T12:57:48;98422.75;;;18.99;82.62
46007;BME280;31738;50.188;8.524;2023-05-10T13:00:14;98422.31;;;19.09;81.92
46007;BME280;31738;50.188;8.524;2023-05-10T13:02:40;98435.69;;;19.14;81.36
46007;BME280;31738;50.188;8.524;2023-05-10T13:05:05;98437.59;;;19.13;81.70
46007;BME280;31738;50.188;8.524;2023-05-10T13:07:31;98449.06;;;19.07;81.25
46007;BME280;31738;50.188;8.524;2023-05-10T13:09:56;98455.22;;;18.95;80.75
46007;BME280;31738;50.188;8.524;2023-05-10T13:12:22;98454.72;;;18.81;80.34
46007;BME280;31738;50.188;8.524;2023-05-10T13:14:47;98464.94;;;18.63;81.32
46007;BME280;31738;50.188;8.524;2023-05-10T13:17:13;98465.88;;;18.47;81.40
46007;BME280;31738;50.188;8.524;2023-05-10T13:19:38;98461.31;;;18.30;81.45
46007;BME280;31738;50.188;8.524;2023-05-10T13:22:04;98470.19;;;18.19;82.56
46007;BME280;31738;50.188;8.524;2023-05-10T13:24:29;98465.94;;;18.09;82.24